Time;durP1;ratioP1;P1;durP2;ratioP2;P2;SDS_P1;SDS_P2;PMS_P1;PMS_P2;Temp;Humidity;BMP_temperature;BMP_pressure;BME280_temperature;BME280_humidity;BME280_pressure;Samples;Min_cycle;Max_cycle;Signal;HPM_P1;HPM_P2
2022/12/29 00:01:55;;;;;;;;;;;;;;;8.89;65.87;97873.91;7390576;19;19922;-71
2022/12/29 00:04:21;;;;;;;;;;;;;;;8.93;66.05;97870.78;7381855;19;20018;-70
2022/12/29 00:06:48;;;;;;;;;;;;;;;8.98;66.31;97872.97;7386697;19;19935;-70
2022/12/29 00:09:15;;;;;;;;;;;;;;;9.07;66.18;97881.72;7382514;19;19922;-71
2022/12/29 00:11:42;;;;;;;;;;;;;;;9.09;66.14;97864.75;7391473;19;19915;-71
2022/12/29 00:16:54;;;;;;;;;;;;;;;9.15;66.30;97856.19;7388302;19;20344;-70
2022/12/29 00:35:52;;;;;;;;;;;;;;;9.41;65.69;97842.91;7387484;19;19923;-69
2022/12/29 00:44:05;;;;;;;;;;;;;;;9.65;64.39;97828.09;7386849;19;19915;-69
2022/12/29 00:46:33;;;;;;;;;;;;;;;9.77;63.59;97823.31;7384879;19;19938;-69
2022/12/29 00:51:45;;;;;;;;;;;;;;;9.89;63.68;97825.47;7381892;19;20005;-70
2022/12/29 00:54:11;;;;;;;;;;;;;;;9.94;63.35;97826.81;7380704;19;19926;-69
2022/12/29 00:56:39;;;;;;;;;;;;;;;10.01;63.62;97825.16;7380025;19;19990;-69
2022/12/29 00:59:07;;;;;;;;;;;;;;;10.04;63.85;97822.19;7383015;19;20344;-69
2022/12/29 01:01:33;;;;;;;;;;;;;;;9.98;63.67;97817.53;7382751;19;19925;-70
2022/12/29 01:04:01;;;;;;;;;;;;;;;9.88;63.85;97823.03;7385152;19;19927;-69
2022/12/29 01:06:30;;;;;;;;;;;;;;;9.89;63.28;97820.19;7387586;19;19978;-70
2022/12/29 01:11:42;;;;;;;;;;;;;;;10.17;63.38;97827.81;7381092;19;20261;-69
2022/12/29 01:14:09;;;;;;;;;;;;;;;10.10;63.29;97837.38;7380474;19;19934;-69
2022/12/29 01:16:36;;;;;;;;;;;;;;;10.03;63.14;97839.88;7385626;19;19959;-69
2022/12/29 01:19:03;;;;;;;;;;;;;;;10.02;64.16;97834.75;7384034;19;19978;-68
2022/12/29 01:21:29;;;;;;;;;;;;;;;9.98;63.20;97838.69;7387294;19;20350;-69
2022/12/29 01:23:56;;;;;;;;;;;;;;;10.05;64.03;97845.78;7389148;19;20385;-69
2022/12/29 01:26:22;;;;;;;;;;;;;;;9.94;63.67;97846.13;7385682;19;19919;-69
2022/12/29 01:28:50;;;;;;;;;;;;;;;10.07;63.20;97851.75;7378708;19;19932;-69
2022/12/29 01:31:17;;;;;;;;;;;;;;;10.12;62.77;97851.25;7383997;19;19926;-69
2022/12/29 01:33:44;;;;;;;;;;;;;;;10.11;63.08;97853.09;7388641;19;19918;-70
2022/12/29 01:36:12;;;;;;;;;;;;;;;10.26;62.66;97841.81;7389004;19;19990;-69
2022/12/29 01:38:39;;;;;;;;;;;;;;;10.32;62.83;97836.75;7386710;19;19923;-69
2022/12/29 01:41:06;;;;;;;;;;;;;;;10.30;63.03;97837.91;7389749;19;19922;-69
2022/12/29 01:43:42;;;;;;;;;;;;;;;10.17;63.16;97837.56;7387713;19;19911;-69
2022/12/29 01:46:24;;;;;;;;;;;;;;;10.21;62.75;97838.84;7382510;19;19925;-69
2022/12/29 01:48:53;;;;;;;;;;;;;;;10.32;63.44;97836.75;7383438;19;19974;-70
2022/12/29 01:51:19;;;;;;;;;;;;;;;10.26;63.24;97847.94;7384131;19;19919;-70
2022/12/29 01:53:46;;;;;;;;;;;;;;;10.30;63.05;97848.47;7385081;19;19951;-69
2022/12/29 01:56:13;;;;;;;;;;;;;;;10.27;63.83;97848.78;7386498;19;20543;-69
2022/12/29 01:58:40;;;;;;;;;;;;;;;10.27;63.39;97846.13;7381358;19;19918;-70
2022/12/29 02:01:06;;;;;;;;;;;;;;;10.25;63.31;97848.13;7385134;19;19932;-69
2022/12/29 02:03:34;;;;;;;;;;;;;;;10.20;63.76;97843.31;7384713;19;20361;-70
2022/12/29 02:06:08;;;;;;;;;;;;;;;10.20;64.04;97839.84;7382804;19;19940;-69
2022/12/29 02:08:36;;;;;;;;;;;;;;;10.27;63.16;97832.94;7383394;19;20289;-69
2022/12/29 02:11:03;;;;;;;;;;;;;;;10.27;63.44;97822.34;7383688;19;20391;-69
2022/12/29 02:13:32;;;;;;;;;;;;;;;10.26;63.51;97824.13;7382623;19;19954;-69
2022/12/29 02:16:11;;;;;;;;;;;;;;;10.21;62.85;97817.72;7384220;19;19923;-68
2022/12/29 02:18:57;;;;;;;;;;;;;;;10.33;61.97;97817.22;7381011;19;19918;-68
2022/12/29 02:21:30;;;;;;;;;;;;;;;10.31;62.81;97815.75;7380256;19;20580;-69
2022/12/29 02:23:59;;;;;;;;;;;;;;;10.33;62.83;97811.13;7384612;19;19922;-69
2022/12/29 02:26:29;;;;;;;;;;;;;;;10.36;62.43;97807.31;7387691;19;19923;-69
2022/12/29 02:28:55;;;;;;;;;;;;;;;10.43;62.14;97816.25;7386682;19;19929;-69
2022/12/29 02:31:27;;;;;;;;;;;;;;;10.47;62.17;97815.72;7385095;19;20257;-69
2022/12/29 02:34:13;;;;;;;;;;;;;;;10.49;62.88;97810.25;7386299;19;19923;-69
2022/12/29 02:36:45;;;;;;;;;;;;;;;10.51;62.21;97814.41;7380188;19;19911;-69
2022/12/29 02:39:14;;;;;;;;;;;;;;;10.52;62.10;97807.28;7376659;19;19930;-69
2022/12/29 02:41:43;;;;;;;;;;;;;;;10.54;62.57;97807.94;7386972;19;19923;-69
2022/12/29 02:44:19;;;;;;;;;;;;;;;10.48;62.88;97808.63;7383297;19;20281;-69
2022/12/29 02:47:09;;;;;;;;;;;;;;;10.43;62.83;97801.19;7382850;19;19939;-69
2022/12/29 02:49:46;;;;;;;;;;;;;;;10.49;62.36;97802.34;7384533;19;19935;-69
2022/12/29 02:52:16;;;;;;;;;;;;;;;10.47;62.81;97797.19;7387262;19;19963;-68
2022/12/29 02:54:43;;;;;;;;;;;;;;;10.47;62.75;97797.19;7386793;19;20532;-69
2022/12/29 02:57:21;;;;;;;;;;;;;;;10.47;62.66;97797.19;7386149;19;19919;-69
2022/12/29 02:59:57;;;;;;;;;;;;;;;10.47;63.11;97807.78;7390119;19;19923;-69
2022/12/29 03:02:34;;;;;;;;;;;;;;;10.53;62.47;97804.47;7391990;19;19919;-69
2022/12/29 03:05:20;;;;;;;;;;;;;;;10.51;62.85;97798.53;7388968;19;19929;-68
2022/12/29 03:07:52;;;;;;;;;;;;;;;10.58;62.60;97805.78;7388286;19;19930;-69
2022/12/29 03:10:25;;;;;;;;;;;;;;;10.63;62.97;97801.63;7389131;19;19915;-69
2022/12/29 03:16:16;;;;;;;;;;;;;;;10.68;62.62;97799.28;7388920;19;19918;-69
2022/12/29 03:18:46;;;;;;;;;;;;;;;10.59;62.26;97796.88;7389239;19;20245;-68
2022/12/29 03:21:22;;;;;;;;;;;;;;;10.61;62.69;97800.13;7392562;19;19919;-69
2022/12/29 03:23:49;;;;;;;;;;;;;;;10.61;63.00;97793.06;7390967;19;19914;-69
2022/12/29 03:26:18;;;;;;;;;;;;;;;10.59;62.75;97792.38;7387159;19;19941;-69
2022/12/29 03:28:46;;;;;;;;;;;;;;;10.58;63.39;97787.25;7385679;19;19930;-69
2022/12/29 03:31:18;;;;;;;;;;;;;;;10.62;63.25;97784.09;7390859;19;19929;-69
2022/12/29 03:33:45;;;;;;;;;;;;;;;10.54;63.19;97773.56;7389052;19;19929;-69
2022/12/29 03:36:14;;;;;;;;;;;;;;;10.59;62.74;97773.06;7387912;19;19914;-70
2022/12/29 03:38:42;;;;;;;;;;;;;;;10.66;62.99;97768.72;7389463;19;19942;-69
2022/12/29 03:41:11;;;;;;;;;;;;;;;10.54;63.54;97768.28;7389698;19;19923;-69
2022/12/29 03:43:37;;;;;;;;;;;;;;;10.52;63.58;97773.72;7387825;19;19941;-70
2022/12/29 03:46:04;;;;;;;;;;;;;;;10.49;62.88;97765.31;7388358;19;20339;-69
2022/12/29 03:48:32;;;;;;;;;;;;;;;10.54;63.18;97763.78;7389906;19;19919;-69
2022/12/29 03:50:59;;;;;;;;;;;;;;;10.57;62.58;97759.16;7385853;19;19934;-69
2022/12/29 03:53:26;;;;;;;;;;;;;;;10.57;63.07;97756.53;7389610;19;19922;-69
2022/12/29 03:55:53;;;;;;;;;;;;;;;10.59;62.93;97754.53;7391840;19;19910;-69
2022/12/29 03:58:21;;;;;;;;;;;;;;;10.53;62.29;97758.66;7385926;19;20416;-69
2022/12/29 04:00:55;;;;;;;;;;;;;;;10.50;61.91;97759.00;7387635;19;19925;-69
2022/12/29 04:03:22;;;;;;;;;;;;;;;10.59;62.69;97765.94;7388064;19;19924;-69
2022/12/29 04:05:49;;;;;;;;;;;;;;;10.48;63.17;97767.13;7389390;19;19912;-69
2022/12/29 04:08:16;;;;;;;;;;;;;;;10.40;63.06;97767.16;7387691;19;19952;-69
2022/12/29 04:10:43;;;;;;;;;;;;;;;10.31;62.63;97768.16;7391249;19;19933;-69
2022/12/29 04:13:11;;;;;;;;;;;;;;;10.25;62.70;97766.97;7387404;19;20006;-70
2022/12/29 04:15:38;;;;;;;;;;;;;;;10.22;62.90;97753.28;7383391;19;20272;-69
2022/12/29 04:18:04;;;;;;;;;;;;;;;10.11;63.70;97765.88;7383829;19;19926;-69
2022/12/29 04:23:18;;;;;;;;;;;;;;;10.07;64.28;97775.09;7386680;19;19970;-69
2022/12/29 04:25:45;;;;;;;;;;;;;;;10.09;64.13;97775.78;7387612;19;19918;-69
2022/12/29 04:28:13;;;;;;;;;;;;;;;10.31;63.87;97782.19;7387053;19;19946;-69
2022/12/29 04:30:54;;;;;;;;;;;;;;;10.40;64.24;97783.03;7385690;19;19925;-69
2022/12/29 04:33:25;;;;;;;;;;;;;;;10.31;64.55;97784.03;7386722;19;20473;-70
2022/12/29 04:35:55;;;;;;;;;;;;;;;10.35;63.54;97785.34;7385799;19;19926;-69
2022/12/29 04:38:23;;;;;;;;;;;;;;;10.47;63.34;97780.50;7382996;19;19923;-69
2022/12/29 04:40:50;;;;;;;;;;;;;;;10.67;62.84;97789.72;7389249;19;19918;-69
2022/12/29 04:43:19;;;;;;;;;;;;;;;10.97;62.65;97776.69;7383247;19;19948;-68
2022/12/29 04:46:04;;;;;;;;;;;;;;;10.92;62.71;97769.25;7383851;19;20003;-69
2022/12/29 04:48:39;;;;;;;;;;;;;;;10.92;62.64;97784.31;7381436;19;19922;-68
2022/12/29 04:51:44;;;;;;;;;;;;;;;10.58;63.29;97776.69;7387381;19;19922;-70
2022/12/29 04:54:12;;;;;;;;;;;;;;;10.45;63.40;97772.75;7387156;19;19919;-70
2022/12/29 04:56:40;;;;;;;;;;;;;;;10.64;63.28;97773.38;7385481;19;20338;-69
2022/12/29 04:59:06;;;;;;;;;;;;;;;10.62;63.06;97780.66;7384325;19;19970;-70
2022/12/29 05:01:33;;;;;;;;;;;;;;;10.42;63.34;97774.91;7385346;19;19925;-70
2022/12/29 05:04:00;;;;;;;;;;;;;;;10.53;63.66;97772.75;7386735;19;19923;-69
2022/12/29 05:06:36;;;;;;;;;;;;;;;10.48;63.61;97772.41;7377742;19;19956;-71
2022/12/29 05:09:02;;;;;;;;;;;;;;;10.55;63.91;97759.31;7380221;19;19978;-71
2022/12/29 05:11:29;;;;;;;;;;;;;;;10.58;63.39;97771.38;7386835;19;19911;-71
2022/12/29 05:13:57;;;;;;;;;;;;;;;10.60;64.09;97758.81;7386789;19;19911;-71
2022/12/29 05:16:23;;;;;;;;;;;;;;;10.62;63.87;97759.47;7387665;19;19922;-71
2022/12/29 05:18:51;;;;;;;;;;;;;;;10.66;63.37;97758.94;7381916;19;20275;-70
2022/12/29 05:21:18;;;;;;;;;;;;;;;10.66;63.34;97752.84;7387699;19;19919;-70
2022/12/29 05:23:45;;;;;;;;;;;;;;;10.59;63.60;97747.41;7383860;19;19915;-71
2022/12/29 05:26:13;;;;;;;;;;;;;;;10.68;63.44;97749.03;7385102;19;19990;-71
2022/12/29 05:28:55;;;;;;;;;;;;;;;10.55;63.82;97740.81;7384147;19;19978;-68
2022/12/29 05:31:21;;;;;;;;;;;;;;;10.49;64.29;97737.03;7389961;19;19919;-68
2022/12/29 05:33:48;;;;;;;;;;;;;;;10.46;64.41;97744.50;7387345;19;19941;-69
2022/12/29 05:36:15;;;;;;;;;;;;;;;10.58;64.18;97751.03;7387530;19;19933;-70
2022/12/29 05:38:46;;;;;;;;;;;;;;;10.61;64.24;97747.22;7380366;19;19933;-70
2022/12/29 05:41:13;;;;;;;;;;;;;;;10.72;63.56;97768.03;7382185;19;20303;-70
2022/12/29 05:44:00;;;;;;;;;;;;;;;10.65;63.92;97753.84;7387881;19;19922;-70
2022/12/29 05:46:53;;;;;;;;;;;;;;;10.68;64.17;97742.91;7385749;19;20379;-69
2022/12/29 05:49:32;;;;;;;;;;;;;;;10.69;64.02;97750.69;7381244;19;19930;-69
2022/12/29 05:52:29;;;;;;;;;;;;;;;10.65;63.81;97751.19;7384685;19;19903;-69
2022/12/29 05:54:55;;;;;;;;;;;;;;;10.60;63.91;97753.53;7386127;19;19931;-69
2022/12/29 05:57:24;;;;;;;;;;;;;;;10.73;63.95;97749.34;7380199;19;19914;-69
2022/12/29 06:00:01;;;;;;;;;;;;;;;10.96;63.66;97757.34;7383456;19;19914;-69
2022/12/29 06:02:28;;;;;;;;;;;;;;;10.90;63.42;97747.47;7385715;19;19922;-70
2022/12/29 06:04:56;;;;;;;;;;;;;;;11.09;62.81;97755.97;7384946;19;19933;-69
2022/12/29 06:07:22;;;;;;;;;;;;;;;11.04;62.97;97750.38;7383956;19;20328;-69
2022/12/29 06:09:49;;;;;;;;;;;;;;;11.05;63.30;97738.75;7384906;19;19927;-70
2022/12/29 06:12:16;;;;;;;;;;;;;;;10.91;63.29;97727.09;7376570;19;20654;-70
2022/12/29 06:14:45;;;;;;;;;;;;;;;10.80;63.24;97707.16;7379389;19;19918;-69
2022/12/29 06:17:12;;;;;;;;;;;;;;;10.80;63.21;97723.03;7377257;19;19926;-69
2022/12/29 06:19:38;;;;;;;;;;;;;;;10.69;63.90;97715.44;7384107;19;19919;-69
2022/12/29 06:22:07;;;;;;;;;;;;;;;10.62;63.33;97725.91;7383313;19;19919;-70
2022/12/29 06:24:34;;;;;;;;;;;;;;;10.61;63.66;97731.38;7384653;19;20382;-70
2022/12/29 06:27:01;;;;;;;;;;;;;;;10.65;63.18;97741.44;7389772;19;19923;-69
2022/12/29 06:29:28;;;;;;;;;;;;;;;10.54;63.49;97745.28;7382153;19;19918;-70
2022/12/29 06:31:57;;;;;;;;;;;;;;;10.80;62.77;97744.19;7388995;19;19927;-69
2022/12/29 06:34:25;;;;;;;;;;;;;;;10.81;63.08;97751.13;7391351;19;19978;-70
2022/12/29 06:36:52;;;;;;;;;;;;;;;10.83;62.83;97749.13;7388961;19;20603;-69
2022/12/29 06:39:18;;;;;;;;;;;;;;;10.92;62.26;97748.09;7385747;19;19963;-70
2022/12/29 06:41:58;;;;;;;;;;;;;;;11.14;62.66;97740.38;7392610;19;20274;-70
2022/12/29 06:44:47;;;;;;;;;;;;;;;10.99;62.92;97750.88;7392882;19;19948;-70
2022/12/29 06:47:14;;;;;;;;;;;;;;;10.97;62.43;97744.94;7390128;19;19921;-70
2022/12/29 06:49:40;;;;;;;;;;;;;;;10.84;63.05;97750.78;7390863;19;19933;-70
2022/12/29 06:52:07;;;;;;;;;;;;;;;10.81;62.85;97747.66;7392404;19;19915;-69
2022/12/29 06:54:38;;;;;;;;;;;;;;;10.79;62.89;97752.28;7392229;19;19939;-70
2022/12/29 06:57:05;;;;;;;;;;;;;;;10.72;62.53;97736.28;7390841;19;19926;-70
2022/12/29 06:59:32;;;;;;;;;;;;;;;10.71;62.65;97737.28;7390485;19;19926;-70
2022/12/29 07:01:59;;;;;;;;;;;;;;;10.63;62.56;97732.03;7387682;19;19922;-70
2022/12/29 07:04:26;;;;;;;;;;;;;;;10.52;63.21;97736.69;7387144;19;20466;-70
2022/12/29 07:06:52;;;;;;;;;;;;;;;10.38;63.75;97741.88;7393896;19;19964;-69
2022/12/29 07:09:19;;;;;;;;;;;;;;;10.32;63.44;97741.56;7386201;19;19926;-69
2022/12/29 07:11:46;;;;;;;;;;;;;;;10.31;63.51;97736.44;7390865;19;19918;-69
2022/12/29 07:14:12;;;;;;;;;;;;;;;10.07;63.38;97740.75;7392757;19;19947;-69
2022/12/29 07:16:39;;;;;;;;;;;;;;;10.01;63.75;97749.34;7392051;19;20344;-70
2022/12/29 07:19:06;;;;;;;;;;;;;;;10.04;64.18;97735.81;7389220;19;20398;-69
2022/12/29 07:21:32;;;;;;;;;;;;;;;9.99;64.09;97735.47;7390568;19;19923;-69
2022/12/29 07:23:59;;;;;;;;;;;;;;;9.98;64.17;97723.28;7392900;19;19997;-69
2022/12/29 07:26:25;;;;;;;;;;;;;;;9.94;64.38;97731.69;7391329;19;19919;-70
2022/12/29 07:29:00;;;;;;;;;;;;;;;9.98;63.87;97727.69;7391887;19;19923;-69
2022/12/29 07:31:26;;;;;;;;;;;;;;;10.14;63.93;97735.63;7390883;19;19995;-69
2022/12/29 07:33:53;;;;;;;;;;;;;;;10.14;63.96;97738.28;7390662;19;19949;-70
2022/12/29 07:36:20;;;;;;;;;;;;;;;10.13;63.95;97735.78;7388990;19;19919;-70
2022/12/29 07:38:46;;;;;;;;;;;;;;;10.12;64.15;97742.91;7384859;19;20348;-70
2022/12/29 07:41:13;;;;;;;;;;;;;;;10.01;64.46;97744.06;7387090;19;20347;-70
2022/12/29 07:43:40;;;;;;;;;;;;;;;10.15;63.77;97734.63;7387345;19;20367;-70
2022/12/29 07:46:35;;;;;;;;;;;;;;;10.11;64.20;97734.16;7388521;19;20267;-70
2022/12/29 07:49:22;;;;;;;;;;;;;;;10.13;64.58;97735.78;7388831;19;19927;-71
2022/12/29 07:51:48;;;;;;;;;;;;;;;10.11;64.30;97739.44;7388086;19;19919;-70
2022/12/29 07:54:17;;;;;;;;;;;;;;;10.07;65.31;97742.56;7388903;19;20450;-71
2022/12/29 07:56:44;;;;;;;;;;;;;;;10.15;64.62;97742.56;7391403;19;20263;-71
2022/12/29 07:59:11;;;;;;;;;;;;;;;10.18;65.13;97754.59;7388526;19;19943;-70
2022/12/29 08:01:38;;;;;;;;;;;;;;;10.20;64.85;97753.44;7389790;19;19915;-69
2022/12/29 08:04:05;;;;;;;;;;;;;;;10.31;64.13;97757.59;7388877;19;19926;-70
2022/12/29 08:06:31;;;;;;;;;;;;;;;10.36;63.93;97762.38;7390852;19;19921;-70
2022/12/29 08:09:00;;;;;;;;;;;;;;;10.37;64.04;97759.53;7386574;19;21933;-70
2022/12/29 08:11:38;;;;;;;;;;;;;;;10.48;64.23;97761.84;7389629;19;19921;-70
2022/12/29 08:14:04;;;;;;;;;;;;;;;10.52;63.76;97768.44;7385180;19;19939;-70
2022/12/29 08:16:32;;;;;;;;;;;;;;;10.57;63.33;97764.47;7386217;19;19919;-69
2022/12/29 08:18:59;;;;;;;;;;;;;;;10.69;63.21;97771.84;7389017;19;19919;-70
2022/12/29 08:21:26;;;;;;;;;;;;;;;10.77;63.46;97778.94;7389795;19;19918;-70
2022/12/29 08:23:53;;;;;;;;;;;;;;;10.84;62.90;97777.22;7389074;19;20364;-70
2022/12/29 08:26:20;;;;;;;;;;;;;;;11.01;63.09;97777.19;7387460;19;19935;-70
2022/12/29 08:28:46;;;;;;;;;;;;;;;11.11;62.73;97775.97;7385702;19;19926;-69
2022/12/29 08:31:13;;;;;;;;;;;;;;;11.07;62.50;97769.34;7386643;19;19921;-70
2022/12/29 08:33:39;;;;;;;;;;;;;;;11.15;62.67;97777.25;7383685;19;19926;-70
2022/12/29 08:36:06;;;;;;;;;;;;;;;11.06;63.17;97769.53;7384572;19;19960;-69
2022/12/29 08:38:33;;;;;;;;;;;;;;;11.14;62.74;97772.16;7386427;19;19938;-70
2022/12/29 08:41:00;;;;;;;;;;;;;;;11.10;62.65;97778.78;7386030;19;19934;-69
2022/12/29 08:43:27;;;;;;;;;;;;;;;11.16;62.63;97770.97;7382154;19;19910;-68
2022/12/29 08:45:54;;;;;;;;;;;;;;;11.13;62.65;97760.72;7385807;19;20655;-70
2022/12/29 08:48:21;;;;;;;;;;;;;;;11.10;62.17;97744.38;7382152;19;19939;-69
2022/12/29 08:50:49;;;;;;;;;;;;;;;11.20;61.54;97764.31;7385992;19;20402;-69
2022/12/29 08:53:16;;;;;;;;;;;;;;;11.26;62.12;97759.31;7387549;19;19919;-69
2022/12/29 08:55:42;;;;;;;;;;;;;;;11.22;61.88;97774.75;7382511;19;19915;-69
2022/12/29 08:58:14;;;;;;;;;;;;;;;11.32;61.92;97772.72;7382657;19;19922;-70
2022/12/29 09:00:42;;;;;;;;;;;;;;;11.30;61.96;97779.19;7382132;19;19999;-70
2022/12/29 09:03:09;;;;;;;;;;;;;;;11.31;61.28;97771.03;7380078;19;20397;-70
2022/12/29 09:05:36;;;;;;;;;;;;;;;11.45;61.72;97787.16;7385731;19;19921;-69
2022/12/29 09:08:03;;;;;;;;;;;;;;;11.46;60.83;97781.72;7385837;19;19922;-69
2022/12/29 09:10:29;;;;;;;;;;;;;;;11.60;60.54;97793.38;7381609;19;19923;-69
2022/12/29 09:12:56;;;;;;;;;;;;;;;11.72;60.58;97797.25;7386642;19;19930;-69
2022/12/29 09:15:23;;;;;;;;;;;;;;;11.90;60.29;97798.81;7383510;19;22100;-70
2022/12/29 09:17:49;;;;;;;;;;;;;;;11.93;60.39;97814.34;7379124;19;19992;-69
2022/12/29 09:20:16;;;;;;;;;;;;;;;11.94;59.79;97816.84;7385917;19;19926;-69
2022/12/29 09:22:43;;;;;;;;;;;;;;;12.02;59.74;97813.28;7382676;19;19922;-71
2022/12/29 09:25:10;;;;;;;;;;;;;;;12.10;60.50;97807.91;7382684;19;19951;-70
2022/12/29 09:27:38;;;;;;;;;;;;;;;12.18;59.67;97813.13;7383610;19;19956;-69
2022/12/29 09:30:05;;;;;;;;;;;;;;;12.14;59.85;97818.97;7384272;19;19927;-69
2022/12/29 09:32:38;;;;;;;;;;;;;;;12.18;59.91;97809.66;7379243;19;19928;-70
2022/12/29 09:35:11;;;;;;;;;;;;;;;12.19;59.79;97814.81;7382802;19;19923;-70
2022/12/29 09:37:39;;;;;;;;;;;;;;;12.27;59.67;97809.44;7385965;19;19970;-69
2022/12/29 09:40:09;;;;;;;;;;;;;;;12.25;59.72;97813.25;7386547;19;19914;-70
2022/12/29 09:42:45;;;;;;;;;;;;;;;12.47;59.44;97819.50;7385636;19;19915;-70
2022/12/29 09:45:18;;;;;;;;;;;;;;;12.46;59.25;97816.03;7385088;19;19923;-71
2022/12/29 09:47:50;;;;;;;;;;;;;;;12.60;59.55;97814.38;7381164;19;19922;-71
2022/12/29 09:50:17;;;;;;;;;;;;;;;12.87;59.05;97812.09;7379266;19;19918;-69
2022/12/29 09:52:46;;;;;;;;;;;;;;;12.91;58.23;97816.88;7386487;19;19922;-70
2022/12/29 09:55:14;;;;;;;;;;;;;;;13.09;58.81;97811.19;7383809;19;19947;-70
2022/12/29 09:57:44;;;;;;;;;;;;;;;13.15;57.99;97809.59;7379671;19;19922;-69
2022/12/29 10:00:17;;;;;;;;;;;;;;;13.30;57.64;97806.97;7390406;19;20715;-70
2022/12/29 10:02:46;;;;;;;;;;;;;;;13.60;57.13;97800.53;7388050;19;20288;-69
2022/12/29 10:05:33;;;;;;;;;;;;;;;13.58;55.79;97807.03;7385924;19;20003;-70
2022/12/29 10:08:04;;;;;;;;;;;;;;;13.49;55.48;97801.03;7389553;19;19918;-70
2022/12/29 10:10:34;;;;;;;;;;;;;;;13.64;56.60;97797.50;7395939;19;19950;-70
2022/12/29 10:13:04;;;;;;;;;;;;;;;13.34;57.50;97793.09;7389186;19;19923;-71
2022/12/29 10:15:42;;;;;;;;;;;;;;;13.19;57.27;97805.56;7382182;19;20017;-71
2022/12/29 10:18:13;;;;;;;;;;;;;;;13.01;58.20;97802.50;7391078;19;19915;-69
2022/12/29 10:20:47;;;;;;;;;;;;;;;12.97;58.15;97804.69;7390359;19;19911;-70
2022/12/29 10:23:17;;;;;;;;;;;;;;;12.78;58.30;97808.72;7382090;19;19914;-70
2022/12/29 10:25:43;;;;;;;;;;;;;;;12.86;58.00;97821.91;7391725;19;20352;-69
2022/12/29 10:28:21;;;;;;;;;;;;;;;12.92;58.30;97825.66;7390180;19;19937;-70
2022/12/29 10:30:48;;;;;;;;;;;;;;;13.02;58.37;97812.09;7386955;19;19954;-70
2022/12/29 10:33:25;;;;;;;;;;;;;;;12.93;58.59;97822.00;7385957;19;19919;-69
2022/12/29 10:35:51;;;;;;;;;;;;;;;12.83;58.41;97816.97;7389933;19;19953;-70
2022/12/29 10:38:36;;;;;;;;;;;;;;;13.02;58.34;97804.94;7385112;19;20293;-71
2022/12/29 10:41:06;;;;;;;;;;;;;;;12.94;58.68;97818.31;7386949;19;19919;-72
2022/12/29 10:43:48;;;;;;;;;;;;;;;13.14;58.74;97810.63;7389695;19;20036;-70
2022/12/29 10:46:19;;;;;;;;;;;;;;;13.20;58.73;97801.09;7392038;19;19918;-72
2022/12/29 10:48:47;;;;;;;;;;;;;;;13.40;58.41;97807.47;7390190;19;19919;-70
2022/12/29 10:51:17;;;;;;;;;;;;;;;13.57;58.28;97810.72;7391509;19;19927;-70
2022/12/29 10:53:48;;;;;;;;;;;;;;;13.63;58.89;97804.66;7387361;19;19926;-70
2022/12/29 10:56:21;;;;;;;;;;;;;;;13.67;58.01;97802.44;7388002;19;20240;-70
2022/12/29 10:58:48;;;;;;;;;;;;;;;13.65;58.40;97807.13;7379946;19;20369;-70
2022/12/29 11:01:15;;;;;;;;;;;;;;;13.71;57.27;97801.03;7391393;19;19914;-70
2022/12/29 11:03:50;;;;;;;;;;;;;;;13.81;57.00;97801.56;7388601;19;19915;-69
2022/12/29 11:06:26;;;;;;;;;;;;;;;13.81;56.48;97801.56;7386534;19;19942;-71
2022/12/29 11:08:57;;;;;;;;;;;;;;;13.82;56.71;97803.19;7386771;19;19923;-70
2022/12/29 11:11:26;;;;;;;;;;;;;;;13.86;56.46;97801.00;7384010;19;21133;-69
2022/12/29 11:14:00;;;;;;;;;;;;;;;13.81;56.38;97797.06;7386674;19;19987;-69
2022/12/29 11:16:27;;;;;;;;;;;;;;;13.73;56.33;97796.38;7386611;19;19920;-70
2022/12/29 11:18:54;;;;;;;;;;;;;;;13.90;56.32;97800.44;7383176;19;19933;-71
2022/12/29 11:21:33;;;;;;;;;;;;;;;13.84;56.95;97803.81;7391690;19;19927;-69
2022/12/29 11:24:01;;;;;;;;;;;;;;;13.98;55.96;97796.78;7389902;19;19919;-70
2022/12/29 11:26:28;;;;;;;;;;;;;;;13.84;56.30;97793.19;7387072;19;19918;-70
2022/12/29 11:29:15;;;;;;;;;;;;;;;13.98;55.58;97800.28;7379991;19;19944;-69
2022/12/29 11:31:46;;;;;;;;;;;;;;;13.86;55.87;97790.34;7385764;19;20602;-70
2022/12/29 11:34:20;;;;;;;;;;;;;;;13.93;55.76;97794.72;7383361;19;19919;-68
2022/12/29 11:36:47;;;;;;;;;;;;;;;14.03;55.63;97794.38;7392140;19;19935;-69
2022/12/29 11:39:23;;;;;;;;;;;;;;;14.25;55.45;97797.84;7386169;19;19918;-70
2022/12/29 11:41:51;;;;;;;;;;;;;;;14.19;55.62;97798.59;7383289;19;19926;-69
2022/12/29 11:44:17;;;;;;;;;;;;;;;14.22;55.63;97792.91;7382878;19;19943;-69
2022/12/29 11:46:45;;;;;;;;;;;;;;;14.05;55.55;97801.16;7382027;19;20816;-70
2022/12/29 11:49:19;;;;;;;;;;;;;;;13.66;55.07;97795.47;7381362;19;19921;-68
2022/12/29 11:51:47;;;;;;;;;;;;;;;13.56;54.96;97804.59;7386853;19;19929;-70
2022/12/29 11:54:37;;;;;;;;;;;;;;;13.58;54.86;97801.72;7390166;19;21059;-69
2022/12/29 11:57:09;;;;;;;;;;;;;;;13.86;55.61;97814.28;7391304;19;19915;-70
2022/12/29 11:59:37;;;;;;;;;;;;;;;13.68;56.93;97809.41;7376471;19;19919;-70
2022/12/29 12:02:13;;;;;;;;;;;;;;;13.38;58.51;97814.81;7383754;19;19919;-70
2022/12/29 12:04:43;;;;;;;;;;;;;;;12.99;61.61;97825.75;7383895;19;19918;-70
2022/12/29 12:07:12;;;;;;;;;;;;;;;12.73;64.34;97825.19;7384093;19;19983;-71
2022/12/29 12:09:43;;;;;;;;;;;;;;;12.34;68.91;97822.78;7385772;19;19919;-70
2022/12/29 12:12:21;;;;;;;;;;;;;;;12.10;69.68;97829.13;7388119;19;19923;-69
2022/12/29 12:14:54;;;;;;;;;;;;;;;12.11;70.06;97828.09;7385402;19;19928;-71
2022/12/29 12:17:38;;;;;;;;;;;;;;;11.92;69.45;97826.78;7387939;19;20007;-70
2022/12/29 12:20:12;;;;;;;;;;;;;;;11.94;69.43;97826.63;7384857;19;19926;-70
2022/12/29 12:22:41;;;;;;;;;;;;;;;11.91;68.34;97811.06;7383354;19;20348;-71
2022/12/29 12:25:20;;;;;;;;;;;;;;;11.96;69.04;97814.00;7384021;19;19927;-70
2022/12/29 12:27:49;;;;;;;;;;;;;;;11.95;68.90;97823.78;7386820;19;19926;-71
2022/12/29 12:30:19;;;;;;;;;;;;;;;12.13;68.51;97817.34;7381712;19;19915;-70
2022/12/29 12:32:49;;;;;;;;;;;;;;;12.22;68.47;97811.78;7384834;19;19915;-71
2022/12/29 12:35:19;;;;;;;;;;;;;;;12.28;67.50;97813.72;7385973;19;19923;-70
2022/12/29 12:37:51;;;;;;;;;;;;;;;12.25;67.34;97806.13;7382196;19;19923;-71
2022/12/29 12:40:27;;;;;;;;;;;;;;;12.34;67.46;97801.56;7387363;19;19922;-69
2022/12/29 12:43:17;;;;;;;;;;;;;;;12.52;67.13;97794.06;7389429;19;19930;-70
2022/12/29 12:45:50;;;;;;;;;;;;;;;12.50;66.26;97789.94;7382406;19;19919;-70
2022/12/29 12:48:21;;;;;;;;;;;;;;;12.58;65.66;97791.69;7388370;19;19919;-70
2022/12/29 12:51:08;;;;;;;;;;;;;;;12.65;65.47;97782.81;7383831;19;19931;-70
2022/12/29 12:53:47;;;;;;;;;;;;;;;12.65;64.97;97780.16;7382132;19;19923;-70
2022/12/29 12:56:23;;;;;;;;;;;;;;;12.72;64.51;97777.63;7387075;19;19919;-70
2022/12/29 12:58:59;;;;;;;;;;;;;;;12.79;64.80;97773.19;7381066;19;19915;-70
2022/12/29 13:01:34;;;;;;;;;;;;;;;12.60;64.28;97774.59;7382837;19;20267;-70
2022/12/29 13:04:14;;;;;;;;;;;;;;;12.68;65.00;97777.16;7387638;19;20347;-71
2022/12/29 13:06:59;;;;;;;;;;;;;;;12.72;65.30;97770.47;7390742;19;19914;-70
2022/12/29 13:09:41;;;;;;;;;;;;;;;12.64;65.14;97770.56;7385826;19;20346;-69
2022/12/29 13:12:30;;;;;;;;;;;;;;;12.79;65.17;97770.53;7378716;19;20388;-71
2022/12/29 13:15:04;;;;;;;;;;;;;;;12.92;65.18;97761.94;7317893;19;19910;-70
2022/12/29 13:18:01;;;;;;;;;;;;;;;13.00;64.66;97759.16;7422178;19;19931;-71
2022/12/29 13:20:28;;;;;;;;;;;;;;;12.98;64.74;97755.91;7423429;19;19939;-71
2022/12/29 13:22:54;;;;;;;;;;;;;;;13.09;64.27;97758.06;7418385;19;19985;-72
2022/12/29 13:25:24;;;;;;;;;;;;;;;13.26;64.33;97768.44;7421110;19;19915;-71
2022/12/29 13:28:01;;;;;;;;;;;;;;;13.28;64.46;97763.81;7411850;19;20343;-71
2022/12/29 13:30:32;;;;;;;;;;;;;;;13.14;64.09;97760.16;7422083;19;19941;-71
2022/12/29 13:32:58;;;;;;;;;;;;;;;13.17;64.33;97757.94;7414028;19;20322;-71
2022/12/29 13:35:31;;;;;;;;;;;;;;;13.13;64.67;97750.53;7420536;19;19915;-71
2022/12/29 13:38:12;;;;;;;;;;;;;;;13.02;64.13;97749.19;7420200;19;19927;-71
2022/12/29 13:40:40;;;;;;;;;;;;;;;12.87;64.63;97753.69;7420562;19;19922;-70
2022/12/29 13:43:08;;;;;;;;;;;;;;;12.87;64.55;97745.72;7413035;19;19938;-70